Unadilla, NY (13849)

2:14 PM EDT on August 22, 2014 (GMT -0400)
East Masonville | Change Station
CLOSE
Current Station
Personal Weather Station
Location: Masonville, NY
Elevation: 1581 ft
Nearby Weather Stations

Elev 1581 ft 42.26 °N, 75.31 °W | Updated 4 minutes ago

Mostly Cloudy
Mostly Cloudy
69.4 °F
Feels Like 69.4 °F
N
2.0
Wind Variable Wind from South
Gusts 8.0 mph

Today
High -- | Low -- °F
--% Chance of Precip.
Yesterday
High -- | Low -- °F
Precip. -- in
6:15 AM 7:51 PM
Waning Crescent, 7% visible
Pressure 30.00 in
Visibility 10.0 miles
Clouds Scattered Clouds 1900 ft
Mostly Cloudy 2400 ft
Mostly Cloudy 6000 ft
Dew Point 65 °F
Humidity 85%
Rainfall 0.00 in
Snow Depth Not available.
UV 3.4 out of 12
Pollen 7.10 out of 12
Ozone Good
PM2.5 Moderate
Flu Activity Not available.
METAR KBGM 221753Z 18003KT 10SM SCT019 BKN024 BKN060 23/18 A3002 RMK AO2 SLP159 T02330183 10239 20161 58008

More Conditions Fewer Conditions

Pressure 30.00 in
Visibility 10.0 miles
Clouds Scattered Clouds 1900 ft
Mostly Cloudy 2400 ft
Mostly Cloudy 6000 ft
Dew Point 65 °F
Humidity 85%
Rainfall 0.00 in
Snow Depth Not available.
UV 3.4 out of 12
Pollen 7.10 out of 12
Ozone Good
PM2.5 Moderate
Flu Activity Not available.
METAR KBGM 221753Z 18003KT 10SM SCT019 BKN024 BKN060 23/18 A3002 RMK AO2 SLP159 T02330183 10239 20161 58008

More Conditions Fewer Conditions

Nowcast | as of 2:03 PM EDT on August 22, 2014

At 3 PM...cloudy with scattered thunderstorms with a chance of showers. Temperature around 73. Southeast winds around 5 mph. At 5 PM...cloudy with scattered thunderstorms with a chance of showers. Temperature around 73. East winds around 5 mph. At 7 PM...cloudy with scattered showers and thunderstorms. Temperature around 71. Southeast winds around 5 mph.

×

10-Day Weather Forecast

Almanac

Astronomy

Aug. 22, 2014 Rise Set
Actual Time 6:15 AM EDT 7:51 PM EDT
Civil Twilight 5:46 AM EDT 8:21 PM EDT
Nautical Twilight 5:10 AM EDT 8:56 PM EDT
Astronomical Twilight 4:31 AM EDT 9:35 PM EDT
Moon 3:34 AM EDT 5:59 PM EDT
Length of Visible Light 14h 34m
Length of Day
13h 35m
Tomorrow will be 2m 38s shorter.
Waning Crescent, 7% of the Moon is Illuminated
Today
Waning Crescent
Aug 25
New
Sep 2
First Quarter
Sep 8
Full
Sep 15
Last Quarter

Today's Extremes

State Highs State Lows

Community

WunderPhotos

Upload Photos

1,746,214 photos uploaded!

WunderBlogs® & News

Nearby

Air Quality

  Air Quality AQ Index Pollutant
Yesterday Good
PM2.5
Yesterday Good
OZONE
Current Moderate
PM2.5
Current Good
OZONE
Friday Good
OZONE
Friday Good
PM2.5
Saturday Good
OZONE
Sunday Good
OZONE
Monday Good
OZONE

Snow Depth

Station Depth Elevation
No new snow has been reported.

Earthquake Activity

City Distance Mag. Time & Date
No recent earthquake activity has been reported nearby.
Minimum magnitude displayed is 2.5.

Coastal Water Temperatures

Place Temperature
No Stations Reporting

Nearby Weather Stations